sensor_id;sensor_type;location;lat;lon;timestamp;pressure;altitude;pressure_sealevel;temperature;humidity
41234;BME280;26968;42.686;23.352;2022-10-31T00:00:20;95728.06;;;15.10;48.76
41234;BME280;26968;42.686;23.352;2022-10-31T00:02:46;95693.66;;;14.66;49.14
41234;BME280;26968;42.686;23.352;2022-10-31T00:05:11;95679.06;;;14.58;48.98
41234;BME280;26968;42.686;23.352;2022-10-31T00:07:37;95683.75;;;14.48;49.14
41234;BME280;26968;42.686;23.352;2022-10-31T00:10:02;95738.69;;;14.73;49.59
41234;BME280;26968;42.686;23.352;2022-10-31T00:12:28;95684.44;;;14.29;50.27
41234;BME280;26968;42.686;23.352;2022-10-31T00:14:53;95667.88;;;14.33;50.10
41234;BME280;26968;42.686;23.352;2022-10-31T00:17:18;95732.44;;;14.58;50.43
41234;BME280;26968;42.686;23.352;2022-10-31T00:19:44;95714.72;;;14.44;50.43
41234;BME280;26968;42.686;23.352;2022-10-31T00:22:09;95733.88;;;14.51;50.64
41234;BME280;26968;42.686;23.352;2022-10-31T00:24:35;95686.38;;;14.24;50.79
41234;BME280;26968;42.686;23.352;2022-10-31T00:27:00;95707.44;;;14.25;50.97
41234;BME280;26968;42.686;23.352;2022-10-31T00:29:25;95726.00;;;14.36;51.04
41234;BME280;26968;42.686;23.352;2022-10-31T00:31:52;95707.72;;;14.24;50.89
41234;BME280;26968;42.686;23.352;2022-10-31T00:34:17;95729.47;;;14.41;51.29
41234;BME280;26968;42.686;23.352;2022-10-31T00:36:43;95729.28;;;14.27;51.53
41234;BME280;26968;42.686;23.352;2022-10-31T00:39:08;95724.41;;;14.35;51.74
41234;BME280;26968;42.686;23.352;2022-10-31T00:41:33;95693.47;;;14.10;51.77
41234;BME280;26968;42.686;23.352;2022-10-31T00:43:59;95669.50;;;14.05;51.36
41234;BME280;26968;42.686;23.352;2022-10-31T00:46:25;95700.25;;;14.26;51.06
41234;BME280;26968;42.686;23.352;2022-10-31T00:48:51;95721.38;;;14.46;51.10
41234;BME280;26968;42.686;23.352;2022-10-31T00:51:16;95688.78;;;14.25;51.48
41234;BME280;26968;42.686;23.352;2022-10-31T00:53:42;95668.41;;;14.11;51.63
41234;BME280;26968;42.686;23.352;2022-10-31T00:56:07;95728.03;;;14.49;51.62
41234;BME280;26968;42.686;23.352;2022-10-31T00:58:32;95720.53;;;14.51;51.50
41234;BME280;26968;42.686;23.352;2022-10-31T01:00:58;95707.16;;;14.51;50.88
41234;BME280;26968;42.686;23.352;2022-10-31T01:03:28;95719.50;;;14.71;50.70
41234;BME280;26968;42.686;23.352;2022-10-31T01:06:07;95726.13;;;14.73;50.93
41234;BME280;26968;42.686;23.352;2022-10-31T01:08:34;95733.34;;;14.73;50.68
41234;BME280;26968;42.686;23.352;2022-10-31T01:13:28;95685.00;;;14.55;50.75
41234;BME280;26968;42.686;23.352;2022-10-31T01:15:55;95719.94;;;14.78;50.85
41234;BME280;26968;42.686;23.352;2022-10-31T01:18:20;95681.81;;;14.53;51.33
41234;BME280;26968;42.686;23.352;2022-10-31T01:20:46;95667.78;;;14.43;50.91
41234;BME280;26968;42.686;23.352;2022-10-31T01:23:11;95700.47;;;14.53;51.08
41234;BME280;26968;42.686;23.352;2022-10-31T01:25:37;95707.97;;;14.51;51.33
41234;BME280;26968;42.686;23.352;2022-10-31T01:28:02;95681.44;;;14.36;51.47
41234;BME280;26968;42.686;23.352;2022-10-31T01:30:28;95683.03;;;14.37;51.28
41234;BME280;26968;42.686;23.352;2022-10-31T01:32:53;95673.56;;;14.02;52.58
41234;BME280;26968;42.686;23.352;2022-10-31T01:35:18;95725.25;;;14.30;52.42
41234;BME280;26968;42.686;23.352;2022-10-31T01:37:44;95683.75;;;14.19;52.10
41234;BME280;26968;42.686;23.352;2022-10-31T01:40:09;95734.38;;;14.53;51.82
41234;BME280;26968;42.686;23.352;2022-10-31T01:42:35;95702.56;;;14.33;52.15
41234;BME280;26968;42.686;23.352;2022-10-31T01:45:01;95735.25;;;14.48;52.50
41234;BME280;26968;42.686;23.352;2022-10-31T01:47:43;95711.72;;;14.26;52.00
41234;BME280;26968;42.686;23.352;2022-10-31T01:52:49;95753.59;;;14.55;52.21
41234;BME280;26968;42.686;23.352;2022-10-31T01:55:21;95752.59;;;14.46;52.67
41234;BME280;26968;42.686;23.352;2022-10-31T01:57:50;95762.72;;;14.49;52.10
41234;BME280;26968;42.686;23.352;2022-10-31T02:00:17;95719.47;;;14.23;52.42
41234;BME280;26968;42.686;23.352;2022-10-31T02:02:45;95736.31;;;14.47;52.45
41234;BME280;26968;42.686;23.352;2022-10-31T02:05:17;95716.28;;;14.21;52.18
41234;BME280;26968;42.686;23.352;2022-10-31T02:07:57;95730.06;;;14.28;52.37
41234;BME280;26968;42.686;23.352;2022-10-31T02:10:24;95737.47;;;14.41;52.59
41234;BME280;26968;42.686;23.352;2022-10-31T02:12:55;95690.56;;;14.06;52.37
41234;BME280;26968;42.686;23.352;2022-10-31T02:15:22;95704.59;;;14.17;52.72
41234;BME280;26968;42.686;23.352;2022-10-31T02:17:48;95741.72;;;14.37;52.92
41234;BME280;26968;42.686;23.352;2022-10-31T02:20:19;95748.69;;;14.38;52.99
41234;BME280;26968;42.686;23.352;2022-10-31T02:33:20;95763.41;;;14.30;53.29
41234;BME280;26968;42.686;23.352;2022-10-31T02:38:54;95764.41;;;14.35;53.21
41234;BME280;26968;42.686;23.352;2022-10-31T02:49:11;95774.41;;;14.24;53.65
41234;BME280;26968;42.686;23.352;2022-10-31T02:51:43;95772.03;;;14.22;53.52
41234;BME280;26968;42.686;23.352;2022-10-31T02:54:25;95710.00;;;13.83;53.40
41234;BME280;26968;42.686;23.352;2022-10-31T02:56:56;95771.22;;;14.22;53.45
41234;BME280;26968;42.686;23.352;2022-10-31T02:59:24;95727.31;;;13.85;53.75
41234;BME280;26968;42.686;23.352;2022-10-31T03:04:53;95775.56;;;14.13;53.85
41234;BME280;26968;42.686;23.352;2022-10-31T03:07:54;95666.41;;;13.40;53.70
41234;BME280;26968;42.686;23.352;2022-10-31T03:10:31;95780.63;;;14.14;53.54
41234;BME280;26968;42.686;23.352;2022-10-31T03:15:43;95750.97;;;13.92;53.49
41234;BME280;26968;42.686;23.352;2022-10-31T03:18:15;95767.97;;;14.01;54.08
41234;BME280;26968;42.686;23.352;2022-10-31T03:21:01;95758.63;;;13.99;53.70
41234;BME280;26968;42.686;23.352;2022-10-31T03:23:32;95756.50;;;14.01;54.21
41234;BME280;26968;42.686;23.352;2022-10-31T03:26:00;95769.38;;;13.94;54.35
41234;BME280;26968;42.686;23.352;2022-10-31T03:28:30;95765.09;;;13.93;54.22
41234;BME280;26968;42.686;23.352;2022-10-31T03:30:58;95743.63;;;13.79;54.22
41234;BME280;26968;42.686;23.352;2022-10-31T03:33:28;95764.03;;;13.94;53.90
41234;BME280;26968;42.686;23.352;2022-10-31T03:35:58;95721.06;;;13.66;54.10
41234;BME280;26968;42.686;23.352;2022-10-31T03:38:26;95702.81;;;13.49;54.60
41234;BME280;26968;42.686;23.352;2022-10-31T03:40:54;95799.91;;;14.06;54.68
41234;BME280;26968;42.686;23.352;2022-10-31T03:43:27;95750.09;;;13.73;54.48
41234;BME280;26968;42.686;23.352;2022-10-31T03:45:53;95797.84;;;13.98;54.45
41234;BME280;26968;42.686;23.352;2022-10-31T03:48:20;95783.50;;;13.89;54.65
41234;BME280;26968;42.686;23.352;2022-10-31T03:53:32;95752.03;;;13.62;54.97
41234;BME280;26968;42.686;23.352;2022-10-31T03:56:02;95802.69;;;13.91;54.79
41234;BME280;26968;42.686;23.352;2022-10-31T03:58:36;95760.72;;;13.39;55.31
41234;BME280;26968;42.686;23.352;2022-10-31T04:01:06;95780.28;;;13.58;55.12
41234;BME280;26968;42.686;23.352;2022-10-31T04:03:35;95759.16;;;13.33;55.21
41234;BME280;26968;42.686;23.352;2022-10-31T04:06:05;95811.09;;;13.74;55.20
41234;BME280;26968;42.686;23.352;2022-10-31T04:08:36;95816.69;;;13.78;54.97
41234;BME280;26968;42.686;23.352;2022-10-31T04:11:04;95739.19;;;13.30;55.32
41234;BME280;26968;42.686;23.352;2022-10-31T04:13:34;95787.72;;;13.61;55.22
41234;BME280;26968;42.686;23.352;2022-10-31T04:16:02;95756.81;;;13.26;55.68
41234;BME280;26968;42.686;23.352;2022-10-31T04:18:28;95788.38;;;13.48;55.50
41234;BME280;26968;42.686;23.352;2022-10-31T04:21:02;95813.84;;;13.59;55.85
41234;BME280;26968;42.686;23.352;2022-10-31T04:23:30;95728.63;;;13.10;55.61
41234;BME280;26968;42.686;23.352;2022-10-31T04:25:55;95827.16;;;13.64;55.69
41234;BME280;26968;42.686;23.352;2022-10-31T04:28:21;95723.94;;;12.97;56.25
41234;BME280;26968;42.686;23.352;2022-10-31T04:30:47;95806.31;;;13.32;56.56
41234;BME280;26968;42.686;23.352;2022-10-31T04:33:12;95825.91;;;13.51;56.23
41234;BME280;26968;42.686;23.352;2022-10-31T04:35:37;95819.28;;;13.49;56.57
41234;BME280;26968;42.686;23.352;2022-10-31T04:38:03;95744.88;;;13.08;56.34
41234;BME280;26968;42.686;23.352;2022-10-31T04:40:28;95819.97;;;13.60;56.19
41234;BME280;26968;42.686;23.352;2022-10-31T04:42:54;95759.72;;;13.25;56.61
41234;BME280;26968;42.686;23.352;2022-10-31T04:45:19;95801.16;;;13.46;56.31
41234;BME280;26968;42.686;23.352;2022-10-31T04:47:45;95794.00;;;13.41;56.26
41234;BME280;26968;42.686;23.352;2022-10-31T04:50:10;95829.09;;;13.53;56.75
41234;BME280;26968;42.686;23.352;2022-10-31T04:52:43;95837.94;;;13.44;57.22
41234;BME280;26968;42.686;23.352;2022-10-31T04:55:10;95822.06;;;13.24;57.31
41234;BME280;26968;42.686;23.352;2022-10-31T04:57:42;95779.84;;;12.97;57.13
41234;BME280;26968;42.686;23.352;2022-10-31T05:00:09;95763.41;;;12.80;57.52
41234;BME280;26968;42.686;23.352;2022-10-31T05:02:42;95807.72;;;13.20;57.61
41234;BME280;26968;42.686;23.352;2022-10-31T05:05:08;95810.38;;;13.14;57.46
41234;BME280;26968;42.686;23.352;2022-10-31T05:07:38;95810.38;;;13.20;57.65
41234;BME280;26968;42.686;23.352;2022-10-31T05:10:03;95786.47;;;13.04;57.43
41234;BME280;26968;42.686;23.352;2022-10-31T05:12:29;95838.81;;;13.34;57.93
41234;BME280;26968;42.686;23.352;2022-10-31T05:14:54;95791.78;;;12.99;57.71
41234;BME280;26968;42.686;23.352;2022-10-31T05:17:20;95848.34;;;13.40;57.85
41234;BME280;26968;42.686;23.352;2022-10-31T05:19:45;95854.97;;;13.48;57.53
41234;BME280;26968;42.686;23.352;2022-10-31T05:22:10;95859.25;;;13.49;57.54
41234;BME280;26968;42.686;23.352;2022-10-31T05:24:36;95858.66;;;13.52;57.85
41234;BME280;26968;42.686;23.352;2022-10-31T05:27:01;95857.56;;;13.58;57.58
41234;BME280;26968;42.686;23.352;2022-10-31T05:29:27;95817.75;;;13.33;57.86
41234;BME280;26968;42.686;23.352;2022-10-31T05:31:52;95840.59;;;13.44;57.53
41234;BME280;26968;42.686;23.352;2022-10-31T05:34:17;95838.28;;;13.32;57.69
41234;BME280;26968;42.686;23.352;2022-10-31T05:36:43;95856.63;;;13.39;57.71
41234;BME280;26968;42.686;23.352;2022-10-31T05:39:08;95827.66;;;13.22;57.44
41234;BME280;26968;42.686;23.352;2022-10-31T05:41:33;95848.66;;;13.29;57.51
41234;BME280;26968;42.686;23.352;2022-10-31T05:43:59;95868.84;;;13.50;57.92
41234;BME280;26968;42.686;23.352;2022-10-31T05:46:24;95877.84;;;13.54;57.54
41234;BME280;26968;42.686;23.352;2022-10-31T05:48:50;95840.75;;;13.13;58.08
41234;BME280;26968;42.686;23.352;2022-10-31T05:51:15;95879.03;;;13.33;57.93
41234;BME280;26968;42.686;23.352;2022-10-31T05:53:40;95834.09;;;13.11;57.66
41234;BME280;26968;42.686;23.352;2022-10-31T05:56:06;95863.66;;;13.14;58.19
41234;BME280;26968;42.686;23.352;2022-10-31T05:58:32;95848.19;;;13.06;57.86
41234;BME280;26968;42.686;23.352;2022-10-31T06:00:57;95872.13;;;13.27;57.71
41234;BME280;26968;42.686;23.352;2022-10-31T06:03:22;95889.69;;;13.33;58.21
41234;BME280;26968;42.686;23.352;2022-10-31T06:05:48;95898.97;;;13.40;57.72
41234;BME280;26968;42.686;23.352;2022-10-31T06:08:13;95879.03;;;13.28;57.65
41234;BME280;26968;42.686;23.352;2022-10-31T06:10:38;95801.97;;;12.82;57.44
41234;BME280;26968;42.686;23.352;2022-10-31T06:13:04;95894.41;;;13.46;57.21
41234;BME280;26968;42.686;23.352;2022-10-31T06:15:31;95900.00;;;13.49;57.30
41234;BME280;26968;42.686;23.352;2022-10-31T06:18:02;95908.22;;;13.53;57.03
41234;BME280;26968;42.686;23.352;2022-10-31T06:20:27;95879.84;;;13.33;56.91
41234;BME280;26968;42.686;23.352;2022-10-31T06:22:53;95916.50;;;13.57;56.92
41234;BME280;26968;42.686;23.352;2022-10-31T06:25:18;95847.94;;;13.08;56.99
41234;BME280;26968;42.686;23.352;2022-10-31T06:27:43;95869.47;;;13.27;57.11
41234;BME280;26968;42.686;23.352;2022-10-31T06:30:09;95897.13;;;13.41;57.12
41234;BME280;26968;42.686;23.352;2022-10-31T06:32:35;95866.00;;;13.26;57.24
41234;BME280;26968;42.686;23.352;2022-10-31T06:35:00;95884.34;;;13.33;57.08
41234;BME280;26968;42.686;23.352;2022-10-31T06:37:26;95872.09;;;13.32;57.24
41234;BME280;26968;42.686;23.352;2022-10-31T06:39:51;95929.47;;;13.68;56.94
41234;BME280;26968;42.686;23.352;2022-10-31T06:42:17;95914.63;;;13.57;57.29
41234;BME280;26968;42.686;23.352;2022-10-31T06:44:42;95897.31;;;13.55;56.81
41234;BME280;26968;42.686;23.352;2022-10-31T06:47:07;95902.34;;;13.61;56.83
41234;BME280;26968;42.686;23.352;2022-10-31T06:49:33;95921.19;;;13.75;57.39
41234;BME280;26968;42.686;23.352;2022-10-31T06:51:58;95933.13;;;13.87;57.08
41234;BME280;26968;42.686;23.352;2022-10-31T06:54:24;95876.53;;;13.57;57.40
41234;BME280;26968;42.686;23.352;2022-10-31T06:56:49;95876.53;;;13.51;58.31
41234;BME280;26968;42.686;23.352;2022-10-31T06:59:15;95924.91;;;13.79;58.86
41234;BME280;26968;42.686;23.352;2022-10-31T07:01:40;95938.41;;;13.93;58.24
41234;BME280;26968;42.686;23.352;2022-10-31T07:04:08;95869.59;;;13.56;58.45
41234;BME280;26968;42.686;23.352;2022-10-31T07:06:34;95906.03;;;13.70;58.82
41234;BME280;26968;42.686;23.352;2022-10-31T07:08:59;95878.88;;;13.63;58.19
41234;BME280;26968;42.686;23.352;2022-10-31T07:11:25;95933.84;;;14.03;58.67
41234;BME280;26968;42.686;23.352;2022-10-31T07:13:50;95862.91;;;13.58;58.17
41234;BME280;26968;42.686;23.352;2022-10-31T07:16:15;95858.66;;;13.57;58.16
41234;BME280;26968;42.686;23.352;2022-10-31T07:18:41;95908.03;;;13.94;57.99
41234;BME280;26968;42.686;23.352;2022-10-31T07:21:06;95844.47;;;13.67;58.00
41234;BME280;26968;42.686;23.352;2022-10-31T07:23:32;95881.09;;;13.90;58.24
41234;BME280;26968;42.686;23.352;2022-10-31T07:25:58;95885.88;;;13.93;57.88
41234;BME280;26968;42.686;23.352;2022-10-31T07:28:25;95865.97;;;13.80;57.84
41234;BME280;26968;42.686;23.352;2022-10-31T07:30:56;95825.63;;;13.53;57.81
41234;BME280;26968;42.686;23.352;2022-10-31T07:33:23;95911.38;;;14.09;57.97
41234;BME280;26968;42.686;23.352;2022-10-31T07:35:48;95873.59;;;13.97;57.64
41234;BME280;26968;42.686;23.352;2022-10-31T07:38:15;95918.50;;;14.19;57.92
41234;BME280;26968;42.686;23.352;2022-10-31T07:40:41;95916.72;;;14.09;58.07
41234;BME280;26968;42.686;23.352;2022-10-31T07:43:08;95901.50;;;14.10;58.01
41234;BME280;26968;42.686;23.352;2022-10-31T07:45:35;95915.59;;;14.15;58.22
41234;BME280;26968;42.686;23.352;2022-10-31T07:48:00;95911.53;;;14.23;58.09
41234;BME280;26968;42.686;23.352;2022-10-31T07:50:31;95899.59;;;14.15;58.36
41234;BME280;26968;42.686;23.352;2022-10-31T07:53:05;95909.34;;;14.30;57.89
41234;BME280;26968;42.686;23.352;2022-10-31T07:55:31;95859.59;;;14.15;57.66
41234;BME280;26968;42.686;23.352;2022-10-31T07:58:01;95913.06;;;14.39;57.84
41234;BME280;26968;42.686;23.352;2022-10-31T08:00:27;95917.78;;;14.47;57.76
41234;BME280;26968;42.686;23.352;2022-10-31T08:02:59;95897.88;;;14.29;57.58
41234;BME280;26968;42.686;23.352;2022-10-31T08:05:25;95884.88;;;14.23;57.46
41234;BME280;26968;42.686;23.352;2022-10-31T08:07:51;95867.00;;;14.23;57.43
41234;BME280;26968;42.686;23.352;2022-10-31T08:10:16;95871.06;;;14.16;57.83
41234;BME280;26968;42.686;23.352;2022-10-31T08:12:41;95861.19;;;14.16;57.60
41234;BME280;26968;42.686;23.352;2022-10-31T08:15:07;95913.41;;;14.61;57.30
41234;BME280;26968;42.686;23.352;2022-10-31T08:17:36;95894.31;;;14.49;57.90
41234;BME280;26968;42.686;23.352;2022-10-31T08:20:03;95909.94;;;14.61;57.24
41234;BME280;26968;42.686;23.352;2022-10-31T08:22:28;95873.81;;;14.35;57.77
41234;BME280;26968;42.686;23.352;2022-10-31T08:24:54;95901.94;;;14.61;57.91
41234;BME280;26968;42.686;23.352;2022-10-31T08:27:19;95913.59;;;14.70;57.76
41234;BME280;26968;42.686;23.352;2022-10-31T08:29:45;95907.66;;;14.78;57.76
41234;BME280;26968;42.686;23.352;2022-10-31T08:32:10;95908.84;;;14.91;57.04
41234;BME280;26968;42.686;23.352;2022-10-31T08:34:35;95847.47;;;14.62;57.39
41234;BME280;26968;42.686;23.352;2022-10-31T08:37:01;95893.56;;;14.96;56.85
41234;BME280;26968;42.686;23.352;2022-10-31T08:39:26;95888.19;;;15.01;56.60
41234;BME280;26968;42.686;23.352;2022-10-31T08:41:52;95888.22;;;14.96;56.62
41234;BME280;26968;42.686;23.352;2022-10-31T08:44:17;95891.50;;;15.12;56.65
41234;BME280;26968;42.686;23.352;2022-10-31T08:46:42;95854.34;;;14.92;56.50
41234;BME280;26968;42.686;23.352;2022-10-31T08:49:08;95912.22;;;15.25;56.53
41234;BME280;26968;42.686;23.352;2022-10-31T08:51:33;95907.53;;;15.36;56.71
41234;BME280;26968;42.686;23.352;2022-10-31T08:53:59;95896.94;;;15.31;56.31
41234;BME280;26968;42.686;23.352;2022-10-31T08:56:24;95902.66;;;15.43;56.38
41234;BME280;26968;42.686;23.352;2022-10-31T08:58:49;95864.25;;;15.15;56.53
41234;BME280;26968;42.686;23.352;2022-10-31T09:01:16;95872.00;;;15.35;56.00
41234;BME280;26968;42.686;23.352;2022-10-31T09:03:41;95891.41;;;15.46;55.63
41234;BME280;26968;42.686;23.352;2022-10-31T09:06:07;95859.94;;;15.38;55.50
41234;BME280;26968;42.686;23.352;2022-10-31T09:08:34;95876.34;;;15.55;55.39
41234;BME280;26968;42.686;23.352;2022-10-31T09:11:01;95860.00;;;15.57;55.53
41234;BME280;26968;42.686;23.352;2022-10-31T09:13:26;95896.97;;;15.92;55.24
41234;BME280;26968;42.686;23.352;2022-10-31T09:15:52;95799.19;;;15.43;55.16
41234;BME280;26968;42.686;23.352;2022-10-31T09:18:21;95891.28;;;16.12;54.89
41234;BME280;26968;42.686;23.352;2022-10-31T09:20:48;95869.47;;;16.05;54.92
41234;BME280;26968;42.686;23.352;2022-10-31T09:23:19;95876.84;;;16.13;54.72
41234;BME280;26968;42.686;23.352;2022-10-31T09:25:46;95869.59;;;16.14;54.86
41234;BME280;26968;42.686;23.352;2022-10-31T09:28:13;95888.44;;;16.41;54.41
41234;BME280;26968;42.686;23.352;2022-10-31T09:30:39;95837.91;;;16.21;54.21
41234;BME280;26968;42.686;23.352;2022-10-31T09:33:10;95886.00;;;16.58;54.29
41234;BME280;26968;42.686;23.352;2022-10-31T09:35:36;95887.53;;;16.65;53.96
41234;BME280;26968;42.686;23.352;2022-10-31T09:38:10;95890.50;;;16.63;53.84
41234;BME280;26968;42.686;23.352;2022-10-31T09:46:05;95883.13;;;16.87;53.36
41234;BME280;26968;42.686;23.352;2022-10-31T09:51:11;95877.19;;;17.18;52.57
41234;BME280;26968;42.686;23.352;2022-10-31T09:56:19;95874.22;;;18.85;48.46
41234;BME280;26968;42.686;23.352;2022-10-31T09:58:51;95872.19;;;19.96;46.32
41234;BME280;26968;42.686;23.352;2022-10-31T10:01:41;95868.25;;;21.47;43.19
41234;BME280;26968;42.686;23.352;2022-10-31T10:06:46;95853.88;;;23.25;38.68
41234;BME280;26968;42.686;23.352;2022-10-31T10:09:12;95847.88;;;23.80;37.13
41234;BME280;26968;42.686;23.352;2022-10-31T10:11:48;95857.72;;;24.52;36.19
41234;BME280;26968;42.686;23.352;2022-10-31T10:32:23;95771.53;;;23.38;36.06
41234;BME280;26968;42.686;23.352;2022-10-31T10:34:52;95825.78;;;23.66;36.05
41234;BME280;26968;42.686;23.352;2022-10-31T10:37:27;95816.56;;;23.55;36.64
41234;BME280;26968;42.686;23.352;2022-10-31T10:39:56;95816.22;;;23.56;36.64
41234;BME280;26968;42.686;23.352;2022-10-31T10:42:27;95814.72;;;23.59;36.27
41234;BME280;26968;42.686;23.352;2022-10-31T10:45:16;95819.59;;;23.41;36.82
41234;BME280;26968;42.686;23.352;2022-10-31T10:48:15;95707.78;;;22.76;36.62
41234;BME280;26968;42.686;23.352;2022-10-31T10:50:46;95766.94;;;23.02;36.51
41234;BME280;26968;42.686;23.352;2022-10-31T10:58:35;95782.50;;;23.17;36.71
41234;BME280;26968;42.686;23.352;2022-10-31T11:01:10;95809.56;;;23.17;37.11
41234;BME280;26968;42.686;23.352;2022-10-31T11:03:39;95756.91;;;22.78;36.37
41234;BME280;26968;42.686;23.352;2022-10-31T11:06:19;95776.56;;;22.66;36.44
41234;BME280;26968;42.686;23.352;2022-10-31T11:08:47;95799.84;;;22.92;36.38
41234;BME280;26968;42.686;23.352;2022-10-31T11:11:23;95798.72;;;23.17;35.63
41234;BME280;26968;42.686;23.352;2022-10-31T11:14:03;95787.09;;;23.53;35.63
41234;BME280;26968;42.686;23.352;2022-10-31T11:16:32;95789.84;;;23.93;35.21
41234;BME280;26968;42.686;23.352;2022-10-31T11:19:17;95743.00;;;23.65;35.01
41234;BME280;26968;42.686;23.352;2022-10-31T11:21:46;95785.63;;;23.96;34.85
41234;BME280;26968;42.686;23.352;2022-10-31T11:24:22;95769.19;;;23.89;35.04
41234;BME280;26968;42.686;23.352;2022-10-31T11:26:49;95748.50;;;23.96;34.49
41234;BME280;26968;42.686;23.352;2022-10-31T11:29:24;95765.19;;;24.54;33.94
41234;BME280;26968;42.686;23.352;2022-10-31T11:31:55;95761.88;;;24.60;33.83
41234;BME280;26968;42.686;23.352;2022-10-31T11:34:31;95752.97;;;24.04;34.75
41234;BME280;26968;42.686;23.352;2022-10-31T11:37:21;95746.09;;;24.07;34.36
41234;BME280;26968;42.686;23.352;2022-10-31T11:39:53;95768.63;;;24.23;34.26
41234;BME280;26968;42.686;23.352;2022-10-31T11:42:26;95756.78;;;24.15;34.35
41234;BME280;26968;42.686;23.352;2022-10-31T11:44:53;95732.88;;;24.05;33.74
41234;BME280;26968;42.686;23.352;2022-10-31T11:47:29;95758.47;;;24.48;33.54
41234;BME280;26968;42.686;23.352;2022-10-31T11:50:01;95704.75;;;24.53;33.38
41234;BME280;26968;42.686;23.352;2022-10-31T11:52:30;95754.66;;;24.37;33.30
41234;BME280;26968;42.686;23.352;2022-10-31T11:55:31;95747.50;;;24.44;33.87
41234;BME280;26968;42.686;23.352;2022-10-31T11:57:57;95717.75;;;24.04;33.81
41234;BME280;26968;42.686;23.352;2022-10-31T12:00:53;95740.75;;;24.22;33.82
41234;BME280;26968;42.686;23.352;2022-10-31T12:06:12;95709.38;;;24.53;32.85
41234;BME280;26968;42.686;23.352;2022-10-31T12:08:38;95735.78;;;24.87;32.09
41234;BME280;26968;42.686;23.352;2022-10-31T12:11:51;95734.31;;;24.90;32.75
41234;BME280;26968;42.686;23.352;2022-10-31T12:16:33;95733.03;;;24.99;32.74
41234;BME280;26968;42.686;23.352;2022-10-31T12:25:12;95731.50;;;25.68;31.63
41234;BME280;26968;42.686;23.352;2022-10-31T12:57:48;95681.19;;;25.05;32.13
41234;BME280;26968;42.686;23.352;2022-10-31T13:00:18;95730.94;;;25.44;32.07
41234;BME280;26968;42.686;23.352;2022-10-31T13:05:33;95690.94;;;24.58;32.64
41234;BME280;26968;42.686;23.352;2022-10-31T13:08:06;95713.09;;;24.92;32.25
41234;BME280;26968;42.686;23.352;2022-10-31T13:10:55;95727.31;;;24.57;32.76
41234;BME280;26968;42.686;23.352;2022-10-31T13:16:18;95722.69;;;24.58;33.27
41234;BME280;26968;42.686;23.352;2022-10-31T13:18:52;95735.59;;;24.49;33.36
41234;BME280;26968;42.686;23.352;2022-10-31T13:21:30;95666.28;;;24.04;33.20
41234;BME280;26968;42.686;23.352;2022-10-31T13:24:00;95731.69;;;24.46;33.21
41234;BME280;26968;42.686;23.352;2022-10-31T13:29:17;95706.75;;;24.25;33.23
41234;BME280;26968;42.686;23.352;2022-10-31T13:31:44;95673.78;;;24.23;33.18
41234;BME280;26968;42.686;23.352;2022-10-31T13:34:34;95721.63;;;24.47;33.53
41234;BME280;26968;42.686;23.352;2022-10-31T13:39:48;95723.81;;;24.26;33.65
41234;BME280;26968;42.686;23.352;2022-10-31T13:44:48;95729.72;;;23.88;33.90
41234;BME280;26968;42.686;23.352;2022-10-31T13:49:46;95694.56;;;23.91;33.47
41234;BME280;26968;42.686;23.352;2022-10-31T13:52:23;95720.19;;;23.94;33.83
41234;BME280;26968;42.686;23.352;2022-10-31T13:54:51;95723.13;;;23.89;33.83
41234;BME280;26968;42.686;23.352;2022-10-31T13:59:52;95730.19;;;23.77;34.38
41234;BME280;26968;42.686;23.352;2022-10-31T14:02:21;95725.09;;;23.76;34.39
41234;BME280;26968;42.686;23.352;2022-10-31T14:04:50;95729.28;;;23.73;34.77
41234;BME280;26968;42.686;23.352;2022-10-31T14:07:20;95726.03;;;23.68;34.90
41234;BME280;26968;42.686;23.352;2022-10-31T14:10:00;95730.00;;;23.58;35.16
41234;BME280;26968;42.686;23.352;2022-10-31T14:12:44;95729.00;;;23.51;35.44
41234;BME280;26968;42.686;23.352;2022-10-31T14:17:38;95735.22;;;23.27;36.66
41234;BME280;26968;42.686;23.352;2022-10-31T14:22:35;95738.88;;;23.19;36.67
41234;BME280;26968;42.686;23.352;2022-10-31T14:25:02;95742.69;;;23.18;36.80
41234;BME280;26968;42.686;23.352;2022-10-31T14:29:53;95739.91;;;23.02;36.90
41234;BME280;26968;42.686;23.352;2022-10-31T14:32:22;95742.13;;;23.00;36.73
41234;BME280;26968;42.686;23.352;2022-10-31T14:34:57;95740.09;;;22.97;37.10
41234;BME280;26968;42.686;23.352;2022-10-31T14:53:01;95744.44;;;22.53;38.05
41234;BME280;26968;42.686;23.352;2022-10-31T14:55:28;95745.00;;;22.46;37.81
41234;BME280;26968;42.686;23.352;2022-10-31T14:57:55;95740.69;;;22.33;38.46
41234;BME280;26968;42.686;23.352;2022-10-31T15:00:22;95745.41;;;22.24;38.25
41234;BME280;26968;42.686;23.352;2022-10-31T15:05:13;95740.88;;;21.95;38.96
41234;BME280;26968;42.686;23.352;2022-10-31T15:07:50;95743.19;;;21.84;39.47
41234;BME280;26968;42.686;23.352;2022-10-31T15:10:20;95747.75;;;21.72;40.13
41234;BME280;26968;42.686;23.352;2022-10-31T15:12:46;95741.75;;;21.16;41.96
41234;BME280;26968;42.686;23.352;2022-10-31T15:15:18;95748.75;;;20.88;42.96
41234;BME280;26968;42.686;23.352;2022-10-31T15:17:44;95750.34;;;20.89;42.85
41234;BME280;26968;42.686;23.352;2022-10-31T15:20:11;95751.28;;;20.84;42.77
41234;BME280;26968;42.686;23.352;2022-10-31T15:22:37;95763.09;;;20.71;42.87
41234;BME280;26968;42.686;23.352;2022-10-31T15:25:02;95758.19;;;20.64;43.01
41234;BME280;26968;42.686;23.352;2022-10-31T15:27:28;95760.00;;;20.52;43.54
41234;BME280;26968;42.686;23.352;2022-10-31T15:29:55;95770.50;;;20.36;43.94
41234;BME280;26968;42.686;23.352;2022-10-31T15:34:47;95759.56;;;20.07;44.63
41234;BME280;26968;42.686;23.352;2022-10-31T15:37:13;95773.22;;;19.93;45.46